KTOP/TOP METAR and TAF weather

Enter ICAO airport designator
Station Type Date Time Source
KTOP METAR 2022/08/12 14:53 UTC NOAA

KTOP 121453Z 11003KT 10SM CLR 27/19 A3015 RMK AO2 SLP200 T02720194 55001


Station Type Date Time Source
KTOP Decoded METAR 2022/08/12 14:53 UTC NOAA

TOPEKA BILLARD MUNICIPAL AIRPORT, KS, United States (KTOP) 39-04N 95-38W 268M
Aug 12, 2022 - 10:53 AM EDT / 2022.08.12 1453 UTC
Wind: from the ESE (110 degrees) at 3 MPH (3 KT):0
Visibility: 10 mile(s):0
Sky conditions: clear
Temperature: 81.0 F (27.2 C)
Dew Point: 66.9 F (19.4 C)
Relative Humidity: 62%
Pressure (altimeter): 30.15 in. Hg (1020 hPa)
Pressure tendency: 0.00 inches (0.1 hPa) lower than three hours ago
ob: KTOP 121453Z 11003KT 10SM CLR 27/19 A3015 RMK AO2 SLP200 T02720194 55001
cycle: 15

Station Type Date Time Source
KTOP TAF 2022/08/12 12:48 UTC NOAA

TAF KTOP 121144Z 1212/1312 11002KT P6SM MIFG FEW250
TEMPO 1212/1213 1/2SM FG
FM121300 15006KT P6SM FEW250

Example: see airport list